sensor_id;sensor_type;location;lat;lon;timestamp;P1;durP1;ratioP1;P2;durP2;ratioP2
38911;SDS011;28444;48.056;14.408;2022-08-03T00:00:27;10.65;;;3.03;;
38911;SDS011;28444;48.056;14.408;2022-08-03T00:02:54;7.05;;;1.92;;
38911;SDS011;28444;48.056;14.408;2022-08-03T00:05:20;4.65;;;2.53;;
38911;SDS011;28444;48.056;14.408;2022-08-03T00:07:47;5.45;;;2.63;;
38911;SDS011;28444;48.056;14.408;2022-08-03T00:10:15;4.63;;;2.83;;
38911;SDS011;28444;48.056;14.408;2022-08-03T00:12:42;5.82;;;2.78;;
38911;SDS011;28444;48.056;14.408;2022-08-03T00:15:09;4.72;;;2.50;;
38911;SDS011;28444;48.056;14.408;2022-08-03T00:17:40;7.50;;;3.00;;
38911;SDS011;28444;48.056;14.408;2022-08-03T00:20:19;4.68;;;2.63;;
38911;SDS011;28444;48.056;14.408;2022-08-03T00:22:47;4.03;;;3.00;;
38911;SDS011;28444;48.056;14.408;2022-08-03T00:25:14;3.75;;;2.85;;
38911;SDS011;28444;48.056;14.408;2022-08-03T00:27:41;4.47;;;2.90;;
38911;SDS011;28444;48.056;14.408;2022-08-03T00:30:08;10.70;;;3.17;;
38911;SDS011;28444;48.056;14.408;2022-08-03T00:32:35;3.90;;;2.95;;
38911;SDS011;28444;48.056;14.408;2022-08-03T00:35:09;9.15;;;3.20;;
38911;SDS011;28444;48.056;14.408;2022-08-03T00:37:57;3.45;;;2.42;;
38911;SDS011;28444;48.056;14.408;2022-08-03T00:40:24;5.78;;;2.95;;
38911;SDS011;28444;48.056;14.408;2022-08-03T00:43:01;3.92;;;2.90;;
38911;SDS011;28444;48.056;14.408;2022-08-03T00:45:31;5.18;;;2.30;;
38911;SDS011;28444;48.056;14.408;2022-08-03T00:48:00;6.47;;;2.80;;
38911;SDS011;28444;48.056;14.408;2022-08-03T00:50:28;6.13;;;2.30;;
38911;SDS011;28444;48.056;14.408;2022-08-03T00:52:57;2.85;;;2.20;;
38911;SDS011;28444;48.056;14.408;2022-08-03T00:55:24;5.80;;;2.67;;
38911;SDS011;28444;48.056;14.408;2022-08-03T00:57:52;4.32;;;2.70;;
38911;SDS011;28444;48.056;14.408;2022-08-03T01:00:20;4.88;;;2.60;;
38911;SDS011;28444;48.056;14.408;2022-08-03T01:02:48;8.20;;;2.85;;
38911;SDS011;28444;48.056;14.408;2022-08-03T01:05:15;5.38;;;2.70;;
38911;SDS011;28444;48.056;14.408;2022-08-03T01:10:48;3.78;;;2.67;;
38911;SDS011;28444;48.056;14.408;2022-08-03T01:16:43;4.90;;;2.67;;
38911;SDS011;28444;48.056;14.408;2022-08-03T01:19:44;3.67;;;2.97;;
38911;SDS011;28444;48.056;14.408;2022-08-03T01:26:31;5.18;;;2.72;;
38911;SDS011;28444;48.056;14.408;2022-08-03T01:29:08;5.72;;;2.95;;
38911;SDS011;28444;48.056;14.408;2022-08-03T01:31:44;3.15;;;2.80;;
38911;SDS011;28444;48.056;14.408;2022-08-03T01:34:40;7.22;;;2.38;;
38911;SDS011;28444;48.056;14.408;2022-08-03T01:37:11;4.63;;;2.85;;
38911;SDS011;28444;48.056;14.408;2022-08-03T01:39:45;5.45;;;3.05;;
38911;SDS011;28444;48.056;14.408;2022-08-03T01:42:12;2.80;;;2.53;;
38911;SDS011;28444;48.056;14.408;2022-08-03T01:44:40;5.53;;;2.92;;
38911;SDS011;28444;48.056;14.408;2022-08-03T01:47:09;2.85;;;2.55;;
38911;SDS011;28444;48.056;14.408;2022-08-03T01:49:37;6.38;;;2.78;;
38911;SDS011;28444;48.056;14.408;2022-08-03T01:52:09;7.70;;;3.13;;
38911;SDS011;28444;48.056;14.408;2022-08-03T01:54:39;3.30;;;3.00;;
38911;SDS011;28444;48.056;14.408;2022-08-03T01:57:08;5.65;;;2.97;;
38911;SDS011;28444;48.056;14.408;2022-08-03T01:59:36;3.80;;;2.20;;
38911;SDS011;28444;48.056;14.408;2022-08-03T02:02:05;6.32;;;3.05;;
38911;SDS011;28444;48.056;14.408;2022-08-03T02:04:55;5.18;;;2.63;;
38911;SDS011;28444;48.056;14.408;2022-08-03T02:07:24;7.53;;;2.75;;
38911;SDS011;28444;48.056;14.408;2022-08-03T02:09:52;4.03;;;2.97;;
38911;SDS011;28444;48.056;14.408;2022-08-03T02:12:21;6.18;;;2.70;;
38911;SDS011;28444;48.056;14.408;2022-08-03T02:14:50;5.93;;;3.58;;
38911;SDS011;28444;48.056;14.408;2022-08-03T02:17:18;7.05;;;2.88;;
38911;SDS011;28444;48.056;14.408;2022-08-03T02:20:05;3.58;;;2.95;;
38911;SDS011;28444;48.056;14.408;2022-08-03T02:22:34;5.50;;;3.10;;
38911;SDS011;28444;48.056;14.408;2022-08-03T02:25:04;5.38;;;2.75;;
38911;SDS011;28444;48.056;14.408;2022-08-03T02:27:32;5.82;;;2.97;;
38911;SDS011;28444;48.056;14.408;2022-08-03T02:30:06;6.95;;;2.50;;
38911;SDS011;28444;48.056;14.408;2022-08-03T02:32:36;6.00;;;2.90;;
38911;SDS011;28444;48.056;14.408;2022-08-03T02:35:06;3.53;;;2.95;;
38911;SDS011;28444;48.056;14.408;2022-08-03T02:37:40;7.47;;;3.60;;
38911;SDS011;28444;48.056;14.408;2022-08-03T02:40:15;3.80;;;3.03;;
38911;SDS011;28444;48.056;14.408;2022-08-03T02:42:44;3.95;;;3.30;;
38911;SDS011;28444;48.056;14.408;2022-08-03T02:45:14;6.18;;;3.08;;
38911;SDS011;28444;48.056;14.408;2022-08-03T02:47:45;3.97;;;2.88;;
38911;SDS011;28444;48.056;14.408;2022-08-03T02:50:20;5.85;;;3.20;;
38911;SDS011;28444;48.056;14.408;2022-08-03T02:52:48;9.98;;;2.85;;
38911;SDS011;28444;48.056;14.408;2022-08-03T02:55:17;7.50;;;3.00;;
38911;SDS011;28444;48.056;14.408;2022-08-03T02:57:46;4.93;;;2.92;;
38911;SDS011;28444;48.056;14.408;2022-08-03T03:00:15;8.32;;;3.10;;
38911;SDS011;28444;48.056;14.408;2022-08-03T03:02:54;2.60;;;2.40;;
38911;SDS011;28444;48.056;14.408;2022-08-03T03:05:23;5.00;;;2.92;;
38911;SDS011;28444;48.056;14.408;2022-08-03T03:08:11;6.85;;;3.22;;
38911;SDS011;28444;48.056;14.408;2022-08-03T03:10:44;5.53;;;2.63;;
38911;SDS011;28444;48.056;14.408;2022-08-03T03:13:12;5.25;;;2.55;;
38911;SDS011;28444;48.056;14.408;2022-08-03T03:15:40;9.48;;;2.80;;
38911;SDS011;28444;48.056;14.408;2022-08-03T03:18:09;4.13;;;3.28;;
38911;SDS011;28444;48.056;14.408;2022-08-03T03:20:37;3.25;;;2.85;;
38911;SDS011;28444;48.056;14.408;2022-08-03T03:23:07;5.60;;;3.95;;
38911;SDS011;28444;48.056;14.408;2022-08-03T03:25:35;10.93;;;3.00;;
38911;SDS011;28444;48.056;14.408;2022-08-03T03:28:03;5.32;;;2.83;;
38911;SDS011;28444;48.056;14.408;2022-08-03T03:30:32;5.22;;;2.40;;
38911;SDS011;28444;48.056;14.408;2022-08-03T03:32:59;8.15;;;3.88;;
38911;SDS011;28444;48.056;14.408;2022-08-03T03:35:27;6.35;;;2.85;;
38911;SDS011;28444;48.056;14.408;2022-08-03T03:37:55;4.85;;;2.65;;
38911;SDS011;28444;48.056;14.408;2022-08-03T03:40:22;11.32;;;2.95;;
38911;SDS011;28444;48.056;14.408;2022-08-03T03:42:49;12.18;;;3.35;;
38911;SDS011;28444;48.056;14.408;2022-08-03T03:45:17;12.05;;;3.40;;
38911;SDS011;28444;48.056;14.408;2022-08-03T03:47:44;26.20;;;4.65;;
38911;SDS011;28444;48.056;14.408;2022-08-03T03:50:11;35.17;;;4.53;;
38911;SDS011;28444;48.056;14.408;2022-08-03T03:52:38;31.08;;;4.25;;
38911;SDS011;28444;48.056;14.408;2022-08-03T03:55:05;21.73;;;3.45;;
38911;SDS011;28444;48.056;14.408;2022-08-03T03:57:33;23.35;;;4.90;;
38911;SDS011;28444;48.056;14.408;2022-08-03T04:00:00;8.50;;;3.42;;
38911;SDS011;28444;48.056;14.408;2022-08-03T04:02:26;11.93;;;2.97;;
38911;SDS011;28444;48.056;14.408;2022-08-03T04:04:53;16.23;;;3.38;;
38911;SDS011;28444;48.056;14.408;2022-08-03T04:07:44;16.15;;;3.67;;
38911;SDS011;28444;48.056;14.408;2022-08-03T04:10:35;24.50;;;4.20;;
38911;SDS011;28444;48.056;14.408;2022-08-03T04:13:29;7.28;;;3.10;;
38911;SDS011;28444;48.056;14.408;2022-08-03T04:15:58;12.05;;;4.63;;
38911;SDS011;28444;48.056;14.408;2022-08-03T04:18:28;14.38;;;3.08;;
38911;SDS011;28444;48.056;14.408;2022-08-03T04:20:57;14.82;;;3.40;;
38911;SDS011;28444;48.056;14.408;2022-08-03T04:23:28;9.48;;;3.67;;
38911;SDS011;28444;48.056;14.408;2022-08-03T04:25:59;19.33;;;3.05;;
38911;SDS011;28444;48.056;14.408;2022-08-03T04:28:28;12.02;;;3.13;;
38911;SDS011;28444;48.056;14.408;2022-08-03T04:30:58;4.15;;;3.00;;
38911;SDS011;28444;48.056;14.408;2022-08-03T04:33:26;4.57;;;3.20;;
38911;SDS011;28444;48.056;14.408;2022-08-03T04:35:58;4.22;;;3.47;;
38911;SDS011;28444;48.056;14.408;2022-08-03T04:38:30;8.32;;;2.95;;
38911;SDS011;28444;48.056;14.408;2022-08-03T04:41:01;7.43;;;3.63;;
38911;SDS011;28444;48.056;14.408;2022-08-03T04:43:30;6.70;;;2.97;;
38911;SDS011;28444;48.056;14.408;2022-08-03T04:45:59;4.53;;;3.08;;
38911;SDS011;28444;48.056;14.408;2022-08-03T04:48:27;6.95;;;2.85;;
38911;SDS011;28444;48.056;14.408;2022-08-03T04:50:54;6.53;;;3.45;;
38911;SDS011;28444;48.056;14.408;2022-08-03T04:53:22;6.95;;;2.83;;
38911;SDS011;28444;48.056;14.408;2022-08-03T04:55:49;9.20;;;3.35;;
38911;SDS011;28444;48.056;14.408;2022-08-03T04:58:15;5.90;;;3.83;;
38911;SDS011;28444;48.056;14.408;2022-08-03T05:00:42;5.78;;;2.97;;
38911;SDS011;28444;48.056;14.408;2022-08-03T05:03:11;3.28;;;2.97;;
38911;SDS011;28444;48.056;14.408;2022-08-03T05:05:49;9.73;;;4.25;;
38911;SDS011;28444;48.056;14.408;2022-08-03T05:08:16;7.10;;;3.22;;
38911;SDS011;28444;48.056;14.408;2022-08-03T05:10:53;8.45;;;3.50;;
38911;SDS011;28444;48.056;14.408;2022-08-03T05:13:20;5.43;;;3.35;;
38911;SDS011;28444;48.056;14.408;2022-08-03T05:15:46;6.70;;;3.72;;
38911;SDS011;28444;48.056;14.408;2022-08-03T05:18:13;10.90;;;3.05;;
38911;SDS011;28444;48.056;14.408;2022-08-03T05:20:40;4.97;;;2.63;;
38911;SDS011;28444;48.056;14.408;2022-08-03T05:23:06;7.82;;;2.80;;
38911;SDS011;28444;48.056;14.408;2022-08-03T05:25:33;7.35;;;3.95;;
38911;SDS011;28444;48.056;14.408;2022-08-03T05:28:00;6.82;;;3.22;;
38911;SDS011;28444;48.056;14.408;2022-08-03T05:30:27;7.72;;;3.70;;
38911;SDS011;28444;48.056;14.408;2022-08-03T05:33:00;4.80;;;2.92;;
38911;SDS011;28444;48.056;14.408;2022-08-03T05:35:30;8.40;;;3.38;;
38911;SDS011;28444;48.056;14.408;2022-08-03T05:38:17;3.72;;;2.58;;
38911;SDS011;28444;48.056;14.408;2022-08-03T05:40:54;4.15;;;3.05;;
38911;SDS011;28444;48.056;14.408;2022-08-03T05:43:23;3.97;;;2.92;;
38911;SDS011;28444;48.056;14.408;2022-08-03T05:45:50;7.72;;;3.28;;
38911;SDS011;28444;48.056;14.408;2022-08-03T05:48:36;6.47;;;3.08;;
38911;SDS011;28444;48.056;14.408;2022-08-03T05:51:03;9.70;;;3.22;;
38911;SDS011;28444;48.056;14.408;2022-08-03T05:53:33;11.15;;;3.58;;
38911;SDS011;28444;48.056;14.408;2022-08-03T05:56:00;4.60;;;3.13;;
38911;SDS011;28444;48.056;14.408;2022-08-03T05:58:47;6.75;;;3.50;;
38911;SDS011;28444;48.056;14.408;2022-08-03T06:01:14;9.85;;;3.30;;
38911;SDS011;28444;48.056;14.408;2022-08-03T06:03:44;8.10;;;2.80;;
38911;SDS011;28444;48.056;14.408;2022-08-03T06:06:12;10.75;;;2.80;;
38911;SDS011;28444;48.056;14.408;2022-08-03T06:08:39;12.35;;;3.10;;
38911;SDS011;28444;48.056;14.408;2022-08-03T06:11:07;5.90;;;2.92;;
38911;SDS011;28444;48.056;14.408;2022-08-03T06:13:34;4.53;;;3.15;;
38911;SDS011;28444;48.056;14.408;2022-08-03T06:16:01;3.75;;;3.30;;
38911;SDS011;28444;48.056;14.408;2022-08-03T06:18:28;12.02;;;3.15;;
38911;SDS011;28444;48.056;14.408;2022-08-03T06:20:55;6.78;;;3.80;;
38911;SDS011;28444;48.056;14.408;2022-08-03T06:23:21;10.82;;;4.93;;
38911;SDS011;28444;48.056;14.408;2022-08-03T06:26:08;7.40;;;4.72;;
38911;SDS011;28444;48.056;14.408;2022-08-03T06:28:38;9.15;;;4.88;;
38911;SDS011;28444;48.056;14.408;2022-08-03T06:31:19;6.80;;;4.18;;
38911;SDS011;28444;48.056;14.408;2022-08-03T06:33:49;4.75;;;3.75;;
38911;SDS011;28444;48.056;14.408;2022-08-03T06:36:35;5.47;;;4.45;;
38911;SDS011;28444;48.056;14.408;2022-08-03T06:39:02;6.28;;;4.80;;
38911;SDS011;28444;48.056;14.408;2022-08-03T06:41:29;5.60;;;4.15;;
38911;SDS011;28444;48.056;14.408;2022-08-03T06:44:03;7.35;;;4.50;;
38911;SDS011;28444;48.056;14.408;2022-08-03T06:46:30;14.68;;;6.38;;
38911;SDS011;28444;48.056;14.408;2022-08-03T06:48:56;10.68;;;5.55;;
38911;SDS011;28444;48.056;14.408;2022-08-03T06:51:23;8.35;;;5.75;;
38911;SDS011;28444;48.056;14.408;2022-08-03T06:54:10;10.15;;;5.05;;
38911;SDS011;28444;48.056;14.408;2022-08-03T06:56:37;10.68;;;4.53;;
38911;SDS011;28444;48.056;14.408;2022-08-03T06:59:04;5.45;;;4.10;;
38911;SDS011;28444;48.056;14.408;2022-08-03T07:01:31;5.47;;;3.88;;
38911;SDS011;28444;48.056;14.408;2022-08-03T07:03:57;6.47;;;3.88;;
38911;SDS011;28444;48.056;14.408;2022-08-03T07:06:25;7.65;;;3.42;;
38911;SDS011;28444;48.056;14.408;2022-08-03T07:08:52;7.00;;;3.83;;
38911;SDS011;28444;48.056;14.408;2022-08-03T07:11:24;6.78;;;3.30;;
38911;SDS011;28444;48.056;14.408;2022-08-03T07:13:51;4.32;;;3.78;;
38911;SDS011;28444;48.056;14.408;2022-08-03T07:16:18;7.68;;;5.22;;
38911;SDS011;28444;48.056;14.408;2022-08-03T07:18:45;8.10;;;3.97;;
38911;SDS011;28444;48.056;14.408;2022-08-03T07:21:12;4.55;;;3.47;;
38911;SDS011;28444;48.056;14.408;2022-08-03T07:23:39;7.25;;;3.97;;
38911;SDS011;28444;48.056;14.408;2022-08-03T07:26:05;8.82;;;4.43;;
38911;SDS011;28444;48.056;14.408;2022-08-03T07:28:32;6.53;;;4.53;;
38911;SDS011;28444;48.056;14.408;2022-08-03T07:30:59;10.90;;;4.53;;
38911;SDS011;28444;48.056;14.408;2022-08-03T07:33:26;10.60;;;4.75;;
38911;SDS011;28444;48.056;14.408;2022-08-03T07:35:52;6.15;;;3.83;;
38911;SDS011;28444;48.056;14.408;2022-08-03T07:38:19;5.28;;;4.45;;
38911;SDS011;28444;48.056;14.408;2022-08-03T07:40:46;6.30;;;3.50;;
38911;SDS011;28444;48.056;14.408;2022-08-03T07:43:13;8.70;;;3.60;;
38911;SDS011;28444;48.056;14.408;2022-08-03T07:45:40;3.67;;;2.95;;
38911;SDS011;28444;48.056;14.408;2022-08-03T07:48:07;5.97;;;3.22;;
38911;SDS011;28444;48.056;14.408;2022-08-03T07:50:37;5.05;;;3.10;;
38911;SDS011;28444;48.056;14.408;2022-08-03T07:53:04;6.00;;;3.13;;
38911;SDS011;28444;48.056;14.408;2022-08-03T07:55:31;4.20;;;3.08;;
38911;SDS011;28444;48.056;14.408;2022-08-03T07:58:08;4.32;;;2.83;;
38911;SDS011;28444;48.056;14.408;2022-08-03T08:00:37;3.13;;;2.70;;
38911;SDS011;28444;48.056;14.408;2022-08-03T08:03:04;5.30;;;3.83;;
38911;SDS011;28444;48.056;14.408;2022-08-03T08:05:31;6.50;;;2.63;;
38911;SDS011;28444;48.056;14.408;2022-08-03T08:07:59;10.65;;;3.35;;
38911;SDS011;28444;48.056;14.408;2022-08-03T08:10:26;5.50;;;3.28;;
38911;SDS011;28444;48.056;14.408;2022-08-03T08:12:54;5.85;;;3.20;;
38911;SDS011;28444;48.056;14.408;2022-08-03T08:15:22;4.50;;;3.22;;
38911;SDS011;28444;48.056;14.408;2022-08-03T08:17:50;7.72;;;2.90;;
38911;SDS011;28444;48.056;14.408;2022-08-03T08:20:24;4.65;;;2.70;;
38911;SDS011;28444;48.056;14.408;2022-08-03T08:22:58;4.45;;;3.05;;
38911;SDS011;28444;48.056;14.408;2022-08-03T08:25:50;6.65;;;2.85;;
38911;SDS011;28444;48.056;14.408;2022-08-03T08:28:18;4.35;;;3.13;;
38911;SDS011;28444;48.056;14.408;2022-08-03T08:30:58;2.78;;;2.40;;
38911;SDS011;28444;48.056;14.408;2022-08-03T08:33:25;9.43;;;2.97;;
38911;SDS011;28444;48.056;14.408;2022-08-03T08:36:02;3.97;;;3.20;;
38911;SDS011;28444;48.056;14.408;2022-08-03T08:38:29;4.78;;;2.90;;
38911;SDS011;28444;48.056;14.408;2022-08-03T08:40:56;6.75;;;3.33;;
38911;SDS011;28444;48.056;14.408;2022-08-03T08:43:22;5.35;;;3.03;;
38911;SDS011;28444;48.056;14.408;2022-08-03T08:45:51;5.15;;;3.30;;
38911;SDS011;28444;48.056;14.408;2022-08-03T08:48:22;8.10;;;2.95;;
38911;SDS011;28444;48.056;14.408;2022-08-03T08:50:54;6.97;;;3.20;;
38911;SDS011;28444;48.056;14.408;2022-08-03T08:53:22;4.72;;;2.80;;
38911;SDS011;28444;48.056;14.408;2022-08-03T08:55:53;6.30;;;2.47;;
38911;SDS011;28444;48.056;14.408;2022-08-03T08:58:31;5.85;;;3.15;;
38911;SDS011;28444;48.056;14.408;2022-08-03T09:01:02;6.07;;;2.35;;
38911;SDS011;28444;48.056;14.408;2022-08-03T09:03:31;5.72;;;3.03;;
38911;SDS011;28444;48.056;14.408;2022-08-03T09:05:59;2.35;;;2.15;;
38911;SDS011;28444;48.056;14.408;2022-08-03T09:08:28;4.32;;;2.00;;
38911;SDS011;28444;48.056;14.408;2022-08-03T09:10:55;4.60;;;2.40;;
38911;SDS011;28444;48.056;14.408;2022-08-03T09:13:22;2.80;;;2.47;;
38911;SDS011;28444;48.056;14.408;2022-08-03T09:16:07;4.80;;;1.90;;
38911;SDS011;28444;48.056;14.408;2022-08-03T09:18:38;3.17;;;2.65;;
38911;SDS011;28444;48.056;14.408;2022-08-03T09:21:14;4.28;;;2.80;;
38911;SDS011;28444;48.056;14.408;2022-08-03T09:24:00;3.08;;;2.20;;
38911;SDS011;28444;48.056;14.408;2022-08-03T09:26:35;5.35;;;2.95;;
38911;SDS011;28444;48.056;14.408;2022-08-03T09:29:04;7.47;;;3.03;;
38911;SDS011;28444;48.056;14.408;2022-08-03T09:31:42;6.18;;;2.53;;
38911;SDS011;28444;48.056;14.408;2022-08-03T09:34:12;3.47;;;2.35;;
38911;SDS011;28444;48.056;14.408;2022-08-03T09:36:42;2.60;;;2.35;;
38911;SDS011;28444;48.056;14.408;2022-08-03T09:39:12;3.28;;;2.53;;
38911;SDS011;28444;48.056;14.408;2022-08-03T09:41:41;8.40;;;2.60;;
38911;SDS011;28444;48.056;14.408;2022-08-03T09:44:10;78.18;;;7.03;;
38911;SDS011;28444;48.056;14.408;2022-08-03T09:46:51;38.60;;;3.75;;
38911;SDS011;28444;48.056;14.408;2022-08-03T09:49:20;7.20;;;2.78;;
38911;SDS011;28444;48.056;14.408;2022-08-03T09:51:47;3.95;;;2.58;;
38911;SDS011;28444;48.056;14.408;2022-08-03T09:54:34;8.45;;;2.20;;
38911;SDS011;28444;48.056;14.408;2022-08-03T09:57:00;6.82;;;2.33;;
38911;SDS011;28444;48.056;14.408;2022-08-03T09:59:28;14.80;;;2.47;;
38911;SDS011;28444;48.056;14.408;2022-08-03T10:01:56;6.10;;;2.05;;
38911;SDS011;28444;48.056;14.408;2022-08-03T10:04:25;10.27;;;2.85;;
38911;SDS011;28444;48.056;14.408;2022-08-03T10:09:30;6.40;;;2.17;;
38911;SDS011;28444;48.056;14.408;2022-08-03T10:11:56;4.22;;;2.70;;
38911;SDS011;28444;48.056;14.408;2022-08-03T10:14:31;2.05;;;1.85;;
38911;SDS011;28444;48.056;14.408;2022-08-03T10:16:59;1.95;;;1.80;;
38911;SDS011;28444;48.056;14.408;2022-08-03T10:19:26;3.95;;;1.77;;
38911;SDS011;28444;48.056;14.408;2022-08-03T10:21:54;3.40;;;2.58;;
38911;SDS011;28444;48.056;14.408;2022-08-03T10:24:24;4.32;;;2.33;;
38911;SDS011;28444;48.056;14.408;2022-08-03T10:26:55;2.75;;;2.20;;
38911;SDS011;28444;48.056;14.408;2022-08-03T10:29:28;2.65;;;2.35;;
38911;SDS011;28444;48.056;14.408;2022-08-03T10:32:05;6.00;;;2.55;;
38911;SDS011;28444;48.056;14.408;2022-08-03T10:34:36;5.40;;;1.83;;
38911;SDS011;28444;48.056;14.408;2022-08-03T10:37:10;3.78;;;1.92;;
38911;SDS011;28444;48.056;14.408;2022-08-03T10:39:39;2.13;;;1.98;;
38911;SDS011;28444;48.056;14.408;2022-08-03T10:42:22;2.58;;;1.75;;
38911;SDS011;28444;48.056;14.408;2022-08-03T10:44:53;4.22;;;2.10;;
38911;SDS011;28444;48.056;14.408;2022-08-03T10:47:25;4.63;;;2.53;;
38911;SDS011;28444;48.056;14.408;2022-08-03T10:49:54;5.82;;;1.85;;
38911;SDS011;28444;48.056;14.408;2022-08-03T10:52:21;2.47;;;2.10;;
38911;SDS011;28444;48.056;14.408;2022-08-03T10:54:59;5.68;;;2.22;;
38911;SDS011;28444;48.056;14.408;2022-08-03T10:57:50;3.50;;;2.42;;
38911;SDS011;28444;48.056;14.408;2022-08-03T11:00:25;2.38;;;2.17;;
38911;SDS011;28444;48.056;14.408;2022-08-03T11:05:44;2.97;;;2.05;;
38911;SDS011;28444;48.056;14.408;2022-08-03T11:08:19;5.10;;;2.00;;
38911;SDS011;28444;48.056;14.408;2022-08-03T11:11:00;3.10;;;2.15;;
38911;SDS011;28444;48.056;14.408;2022-08-03T11:13:58;2.30;;;2.10;;
38911;SDS011;28444;48.056;14.408;2022-08-03T11:19:46;2.65;;;2.00;;
38911;SDS011;28444;48.056;14.408;2022-08-03T11:22:23;3.33;;;1.75;;
38911;SDS011;28444;48.056;14.408;2022-08-03T11:27:32;2.78;;;2.38;;
38911;SDS011;28444;48.056;14.408;2022-08-03T11:30:06;4.88;;;2.15;;
38911;SDS011;28444;48.056;14.408;2022-08-03T11:32:55;11.50;;;2.30;;
38911;SDS011;28444;48.056;14.408;2022-08-03T11:35:30;3.33;;;2.28;;
38911;SDS011;28444;48.056;14.408;2022-08-03T11:38:01;4.05;;;2.13;;
38911;SDS011;28444;48.056;14.408;2022-08-03T11:43:02;11.57;;;2.30;;
38911;SDS011;28444;48.056;14.408;2022-08-03T11:46:00;17.27;;;2.60;;
38911;SDS011;28444;48.056;14.408;2022-08-03T11:48:38;9.20;;;2.55;;
38911;SDS011;28444;48.056;14.408;2022-08-03T11:51:24;12.13;;;2.25;;
38911;SDS011;28444;48.056;14.408;2022-08-03T11:53:53;8.45;;;1.95;;
38911;SDS011;28444;48.056;14.408;2022-08-03T11:56:20;4.50;;;1.95;;
38911;SDS011;28444;48.056;14.408;2022-08-03T11:58:47;28.52;;;2.78;;
38911;SDS011;28444;48.056;14.408;2022-08-03T12:01:35;5.72;;;2.20;;
38911;SDS011;28444;48.056;14.408;2022-08-03T12:04:03;15.32;;;2.20;;
38911;SDS011;28444;48.056;14.408;2022-08-03T12:06:31;7.60;;;2.70;;
38911;SDS011;28444;48.056;14.408;2022-08-03T12:09:17;20.25;;;4.55;;
38911;SDS011;28444;48.056;14.408;2022-08-03T12:11:49;6.57;;;3.20;;
38911;SDS011;28444;48.056;14.408;2022-08-03T12:14:26;2.72;;;2.03;;
38911;SDS011;28444;48.056;14.408;2022-08-03T12:17:17;5.50;;;2.13;;
38911;SDS011;28444;48.056;14.408;2022-08-03T12:19:44;4.57;;;2.25;;
38911;SDS011;28444;48.056;14.408;2022-08-03T12:22:11;37.75;;;3.53;;
38911;SDS011;28444;48.056;14.408;2022-08-03T12:24:42;3.60;;;2.10;;
38911;SDS011;28444;48.056;14.408;2022-08-03T12:27:21;12.57;;;2.50;;
38911;SDS011;28444;48.056;14.408;2022-08-03T12:29:52;3.22;;;2.30;;
38911;SDS011;28444;48.056;14.408;2022-08-03T12:32:24;73.88;;;5.40;;
38911;SDS011;28444;48.056;14.408;2022-08-03T12:34:52;19.30;;;2.60;;
38911;SDS011;28444;48.056;14.408;2022-08-03T12:37:21;7.72;;;2.15;;
38911;SDS011;28444;48.056;14.408;2022-08-03T12:39:52;7.28;;;2.50;;
38911;SDS011;28444;48.056;14.408;2022-08-03T12:42:29;4.65;;;1.85;;
38911;SDS011;28444;48.056;14.408;2022-08-03T12:45:22;8.77;;;2.42;;
38911;SDS011;28444;48.056;14.408;2022-08-03T12:47:58;16.08;;;2.72;;
38911;SDS011;28444;48.056;14.408;2022-08-03T12:50:30;10.73;;;2.53;;
38911;SDS011;28444;48.056;14.408;2022-08-03T12:52:59;20.25;;;3.33;;
38911;SDS011;28444;48.056;14.408;2022-08-03T12:55:27;8.73;;;2.15;;
38911;SDS011;28444;48.056;14.408;2022-08-03T12:58:32;27.80;;;2.78;;
38911;SDS011;28444;48.056;14.408;2022-08-03T13:01:02;10.02;;;2.13;;
38911;SDS011;28444;48.056;14.408;2022-08-03T13:03:39;5.82;;;2.78;;
38911;SDS011;28444;48.056;14.408;2022-08-03T13:06:19;5.18;;;2.40;;
38911;SDS011;28444;48.056;14.408;2022-08-03T13:08:48;5.00;;;2.10;;
38911;SDS011;28444;48.056;14.408;2022-08-03T13:11:26;5.35;;;2.33;;
38911;SDS011;28444;48.056;14.408;2022-08-03T13:14:13;4.07;;;2.15;;
38911;SDS011;28444;48.056;14.408;2022-08-03T13:16:45;12.25;;;2.40;;
38911;SDS011;28444;48.056;14.408;2022-08-03T13:19:12;3.05;;;2.05;;
38911;SDS011;28444;48.056;14.408;2022-08-03T13:21:42;61.63;;;5.55;;
38911;SDS011;28444;48.056;14.408;2022-08-03T13:24:29;8.18;;;2.25;;
38911;SDS011;28444;48.056;14.408;2022-08-03T13:26:58;3.30;;;2.28;;
38911;SDS011;28444;48.056;14.408;2022-08-03T13:29:25;5.78;;;1.98;;
38911;SDS011;28444;48.056;14.408;2022-08-03T13:31:52;5.63;;;2.78;;
38911;SDS011;28444;48.056;14.408;2022-08-03T13:34:18;4.55;;;2.60;;
38911;SDS011;28444;48.056;14.408;2022-08-03T13:36:49;5.68;;;1.80;;
38911;SDS011;28444;48.056;14.408;2022-08-03T13:39:34;7.45;;;2.45;;
38911;SDS011;28444;48.056;14.408;2022-08-03T13:42:21;2.88;;;2.00;;
38911;SDS011;28444;48.056;14.408;2022-08-03T13:44:48;4.50;;;1.88;;
38911;SDS011;28444;48.056;14.408;2022-08-03T13:47:15;39.10;;;5.38;;
38911;SDS011;28444;48.056;14.408;2022-08-03T13:49:42;15.55;;;3.05;;
38911;SDS011;28444;48.056;14.408;2022-08-03T13:52:27;12.93;;;3.75;;
38911;SDS011;28444;48.056;14.408;2022-08-03T13:55:04;5.63;;;2.50;;
38911;SDS011;28444;48.056;14.408;2022-08-03T13:57:32;4.87;;;1.77;;
38911;SDS011;28444;48.056;14.408;2022-08-03T14:00:20;3.25;;;1.60;;
38911;SDS011;28444;48.056;14.408;2022-08-03T14:02:58;2.92;;;2.30;;
38911;SDS011;28444;48.056;14.408;2022-08-03T14:05:37;4.00;;;1.80;;
38911;SDS011;28444;48.056;14.408;2022-08-03T14:08:05;7.65;;;2.25;;
38911;SDS011;28444;48.056;14.408;2022-08-03T14:10:33;16.73;;;2.20;;
38911;SDS011;28444;48.056;14.408;2022-08-03T14:13:02;8.95;;;2.15;;
38911;SDS011;28444;48.056;14.408;2022-08-03T14:15:29;2.22;;;1.63;;
38911;SDS011;28444;48.056;14.408;2022-08-03T14:17:56;3.63;;;1.65;;
38911;SDS011;28444;48.056;14.408;2022-08-03T14:20:24;2.17;;;1.67;;
38911;SDS011;28444;48.056;14.408;2022-08-03T14:23:12;2.50;;;2.25;;
38911;SDS011;28444;48.056;14.408;2022-08-03T14:25:40;5.03;;;2.00;;
38911;SDS011;28444;48.056;14.408;2022-08-03T14:28:15;1.85;;;1.58;;
38911;SDS011;28444;48.056;14.408;2022-08-03T14:30:42;4.35;;;1.85;;
38911;SDS011;28444;48.056;14.408;2022-08-03T14:33:08;2.20;;;1.42;;
38911;SDS011;28444;48.056;14.408;2022-08-03T14:35:35;2.25;;;1.90;;
38911;SDS011;28444;48.056;14.408;2022-08-03T14:38:02;8.88;;;2.00;;
38911;SDS011;28444;48.056;14.408;2022-08-03T14:40:29;9.07;;;1.83;;
38911;SDS011;28444;48.056;14.408;2022-08-03T14:42:55;17.40;;;3.10;;
38911;SDS011;28444;48.056;14.408;2022-08-03T14:45:22;13.18;;;2.38;;
38911;SDS011;28444;48.056;14.408;2022-08-03T14:47:49;11.38;;;2.72;;
38911;SDS011;28444;48.056;14.408;2022-08-03T14:50:36;4.20;;;1.80;;
38911;SDS011;28444;48.056;14.408;2022-08-03T14:53:12;9.55;;;2.25;;
38911;SDS011;28444;48.056;14.408;2022-08-03T14:55:39;2.53;;;1.95;;
38911;SDS011;28444;48.056;14.408;2022-08-03T14:58:19;2.42;;;1.40;;
38911;SDS011;28444;48.056;14.408;2022-08-03T15:00:48;1.83;;;1.50;;
38911;SDS011;28444;48.056;14.408;2022-08-03T15:03:16;11.60;;;2.03;;
38911;SDS011;28444;48.056;14.408;2022-08-03T15:05:46;5.35;;;2.03;;
38911;SDS011;28444;48.056;14.408;2022-08-03T15:08:13;4.68;;;1.77;;
38911;SDS011;28444;48.056;14.408;2022-08-03T15:10:40;3.72;;;1.80;;
38911;SDS011;28444;48.056;14.408;2022-08-03T15:13:11;4.43;;;1.65;;
38911;SDS011;28444;48.056;14.408;2022-08-03T15:15:38;1.92;;;1.58;;
38911;SDS011;28444;48.056;14.408;2022-08-03T15:18:05;2.58;;;1.63;;
38911;SDS011;28444;48.056;14.408;2022-08-03T15:20:32;3.72;;;1.60;;
38911;SDS011;28444;48.056;14.408;2022-08-03T15:23:15;2.97;;;1.55;;